sensor_id;sensor_type;location;lat;lon;timestamp;P1;durP1;ratioP1;P2;durP2;ratioP2
18947;SDS011;9607;51.600;7.558;2023-09-12T00:00:43;1.45;;;1.35;;
18947;SDS011;9607;51.600;7.558;2023-09-12T00:03:13;1.15;;;1.02;;
18947;SDS011;9607;51.600;7.558;2023-09-12T00:05:40;3.88;;;2.20;;
18947;SDS011;9607;51.600;7.558;2023-09-12T00:08:07;2.00;;;1.90;;
18947;SDS011;9607;51.600;7.558;2023-09-12T00:10:34;2.53;;;1.52;;
18947;SDS011;9607;51.600;7.558;2023-09-12T00:13:00;2.20;;;1.95;;
18947;SDS011;9607;51.600;7.558;2023-09-12T00:15:28;3.03;;;2.10;;
18947;SDS011;9607;51.600;7.558;2023-09-12T00:17:55;2.88;;;2.20;;
18947;SDS011;9607;51.600;7.558;2023-09-12T00:20:23;4.13;;;2.30;;
18947;SDS011;9607;51.600;7.558;2023-09-12T00:22:50;2.60;;;2.38;;
18947;SDS011;9607;51.600;7.558;2023-09-12T00:25:18;4.03;;;2.95;;
18947;SDS011;9607;51.600;7.558;2023-09-12T00:27:45;3.97;;;2.63;;
18947;SDS011;9607;51.600;7.558;2023-09-12T00:30:13;3.17;;;2.78;;
18947;SDS011;9607;51.600;7.558;2023-09-12T00:32:40;2.50;;;2.30;;
18947;SDS011;9607;51.600;7.558;2023-09-12T00:35:07;2.70;;;2.50;;
18947;SDS011;9607;51.600;7.558;2023-09-12T00:37:36;2.47;;;2.28;;
18947;SDS011;9607;51.600;7.558;2023-09-12T00:40:04;2.67;;;2.40;;
18947;SDS011;9607;51.600;7.558;2023-09-12T00:42:31;2.88;;;2.58;;
18947;SDS011;9607;51.600;7.558;2023-09-12T00:44:59;2.60;;;2.40;;
18947;SDS011;9607;51.600;7.558;2023-09-12T00:47:25;2.40;;;2.20;;
18947;SDS011;9607;51.600;7.558;2023-09-12T00:49:54;2.40;;;2.20;;
18947;SDS011;9607;51.600;7.558;2023-09-12T00:52:22;2.22;;;1.95;;
18947;SDS011;9607;51.600;7.558;2023-09-12T00:54:52;1.77;;;1.67;;
18947;SDS011;9607;51.600;7.558;2023-09-12T00:57:20;1.70;;;1.60;;
18947;SDS011;9607;51.600;7.558;2023-09-12T00:59:47;1.95;;;1.85;;
18947;SDS011;9607;51.600;7.558;2023-09-12T01:02:14;3.65;;;2.30;;
18947;SDS011;9607;51.600;7.558;2023-09-12T01:04:41;4.60;;;3.50;;
18947;SDS011;9607;51.600;7.558;2023-09-12T01:07:09;2.78;;;2.55;;
18947;SDS011;9607;51.600;7.558;2023-09-12T01:09:36;5.00;;;3.08;;
18947;SDS011;9607;51.600;7.558;2023-09-12T01:12:05;3.38;;;3.08;;
18947;SDS011;9607;51.600;7.558;2023-09-12T01:14:32;5.30;;;3.25;;
18947;SDS011;9607;51.600;7.558;2023-09-12T01:16:59;5.22;;;3.72;;
18947;SDS011;9607;51.600;7.558;2023-09-12T01:19:27;4.57;;;3.42;;
18947;SDS011;9607;51.600;7.558;2023-09-12T01:28:01;6.85;;;6.03;;
18947;SDS011;9607;51.600;7.558;2023-09-12T01:30:32;9.07;;;6.97;;
18947;SDS011;9607;51.600;7.558;2023-09-12T01:33:01;9.00;;;7.55;;
18947;SDS011;9607;51.600;7.558;2023-09-12T01:35:28;9.77;;;8.77;;
18947;SDS011;9607;51.600;7.558;2023-09-12T01:37:55;12.95;;;9.98;;
18947;SDS011;9607;51.600;7.558;2023-09-12T01:40:24;10.65;;;9.20;;
18947;SDS011;9607;51.600;7.558;2023-09-12T01:42:59;11.95;;;9.25;;
18947;SDS011;9607;51.600;7.558;2023-09-12T01:45:29;10.75;;;7.82;;
18947;SDS011;9607;51.600;7.558;2023-09-12T01:47:57;9.25;;;7.78;;
18947;SDS011;9607;51.600;7.558;2023-09-12T01:50:26;15.63;;;11.52;;
18947;SDS011;9607;51.600;7.558;2023-09-12T01:52:54;15.50;;;10.70;;
18947;SDS011;9607;51.600;7.558;2023-09-12T01:55:29;13.07;;;11.07;;
18947;SDS011;9607;51.600;7.558;2023-09-12T01:57:57;13.07;;;10.18;;
18947;SDS011;9607;51.600;7.558;2023-09-12T02:00:26;10.57;;;8.60;;
18947;SDS011;9607;51.600;7.558;2023-09-12T02:02:53;11.63;;;10.43;;
18947;SDS011;9607;51.600;7.558;2023-09-12T02:05:20;11.05;;;7.18;;
18947;SDS011;9607;51.600;7.558;2023-09-12T02:07:48;7.53;;;6.30;;
18947;SDS011;9607;51.600;7.558;2023-09-12T02:10:15;7.10;;;5.90;;
18947;SDS011;9607;51.600;7.558;2023-09-12T02:12:42;6.95;;;6.18;;
18947;SDS011;9607;51.600;7.558;2023-09-12T02:15:09;6.82;;;6.13;;
18947;SDS011;9607;51.600;7.558;2023-09-12T02:17:38;11.05;;;8.25;;
18947;SDS011;9607;51.600;7.558;2023-09-12T02:20:06;6.70;;;5.40;;
18947;SDS011;9607;51.600;7.558;2023-09-12T02:22:34;6.07;;;5.53;;
18947;SDS011;9607;51.600;7.558;2023-09-12T02:25:01;11.98;;;10.40;;
18947;SDS011;9607;51.600;7.558;2023-09-12T02:27:29;11.15;;;9.90;;
18947;SDS011;9607;51.600;7.558;2023-09-12T02:29:56;18.10;;;12.48;;
18947;SDS011;9607;51.600;7.558;2023-09-12T02:32:23;16.92;;;12.40;;
18947;SDS011;9607;51.600;7.558;2023-09-12T02:34:58;16.77;;;13.40;;
18947;SDS011;9607;51.600;7.558;2023-09-12T02:37:26;18.15;;;13.93;;
18947;SDS011;9607;51.600;7.558;2023-09-12T02:39:52;19.38;;;14.45;;
18947;SDS011;9607;51.600;7.558;2023-09-12T02:42:19;20.35;;;15.07;;
18947;SDS011;9607;51.600;7.558;2023-09-12T02:44:46;23.05;;;16.90;;
18947;SDS011;9607;51.600;7.558;2023-09-12T02:47:13;23.13;;;16.65;;
18947;SDS011;9607;51.600;7.558;2023-09-12T02:49:40;17.10;;;13.38;;
18947;SDS011;9607;51.600;7.558;2023-09-12T02:52:12;18.98;;;14.80;;
18947;SDS011;9607;51.600;7.558;2023-09-12T02:54:39;13.93;;;12.35;;
18947;SDS011;9607;51.600;7.558;2023-09-12T02:57:06;13.13;;;10.45;;
18947;SDS011;9607;51.600;7.558;2023-09-12T02:59:33;14.90;;;13.02;;
18947;SDS011;9607;51.600;7.558;2023-09-12T03:02:00;19.10;;;13.60;;
18947;SDS011;9607;51.600;7.558;2023-09-12T03:04:27;14.07;;;11.15;;
18947;SDS011;9607;51.600;7.558;2023-09-12T03:07:00;10.80;;;9.23;;
18947;SDS011;9607;51.600;7.558;2023-09-12T03:09:28;10.48;;;9.38;;
18947;SDS011;9607;51.600;7.558;2023-09-12T03:11:55;9.05;;;8.13;;
18947;SDS011;9607;51.600;7.558;2023-09-12T03:14:22;9.02;;;8.13;;
18947;SDS011;9607;51.600;7.558;2023-09-12T03:16:48;8.43;;;7.63;;
18947;SDS011;9607;51.600;7.558;2023-09-12T03:19:15;9.85;;;8.82;;
18947;SDS011;9607;51.600;7.558;2023-09-12T03:21:42;14.27;;;10.63;;
18947;SDS011;9607;51.600;7.558;2023-09-12T03:24:09;13.15;;;11.32;;
18947;SDS011;9607;51.600;7.558;2023-09-12T03:26:37;8.77;;;7.88;;
18947;SDS011;9607;51.600;7.558;2023-09-12T03:29:04;8.63;;;7.78;;
18947;SDS011;9607;51.600;7.558;2023-09-12T03:31:31;9.00;;;8.13;;
18947;SDS011;9607;51.600;7.558;2023-09-12T03:33:58;9.27;;;8.25;;
18947;SDS011;9607;51.600;7.558;2023-09-12T03:36:25;8.13;;;7.32;;
18947;SDS011;9607;51.600;7.558;2023-09-12T03:38:52;12.93;;;9.35;;
18947;SDS011;9607;51.600;7.558;2023-09-12T03:41:18;26.95;;;20.23;;
18947;SDS011;9607;51.600;7.558;2023-09-12T03:43:48;24.73;;;20.33;;
18947;SDS011;9607;51.600;7.558;2023-09-12T03:46:15;23.77;;;18.40;;
18947;SDS011;9607;51.600;7.558;2023-09-12T03:48:42;20.15;;;14.50;;
18947;SDS011;9607;51.600;7.558;2023-09-12T03:51:08;19.85;;;16.13;;
18947;SDS011;9607;51.600;7.558;2023-09-12T03:53:35;17.73;;;13.95;;
18947;SDS011;9607;51.600;7.558;2023-09-12T03:56:02;21.42;;;17.77;;
18947;SDS011;9607;51.600;7.558;2023-09-12T03:58:29;19.98;;;16.95;;
18947;SDS011;9607;51.600;7.558;2023-09-12T04:00:58;22.02;;;17.15;;
18947;SDS011;9607;51.600;7.558;2023-09-12T04:03:25;16.77;;;13.30;;
18947;SDS011;9607;51.600;7.558;2023-09-12T04:05:52;25.02;;;17.15;;
18947;SDS011;9607;51.600;7.558;2023-09-12T04:08:19;21.08;;;15.32;;
18947;SDS011;9607;51.600;7.558;2023-09-12T04:10:46;21.90;;;16.70;;
18947;SDS011;9607;51.600;7.558;2023-09-12T04:13:13;28.38;;;19.92;;
18947;SDS011;9607;51.600;7.558;2023-09-12T04:15:39;27.08;;;20.77;;
18947;SDS011;9607;51.600;7.558;2023-09-12T04:18:08;23.40;;;19.15;;
18947;SDS011;9607;51.600;7.558;2023-09-12T04:20:35;26.10;;;19.25;;
18947;SDS011;9607;51.600;7.558;2023-09-12T04:23:02;25.40;;;18.70;;
18947;SDS011;9607;51.600;7.558;2023-09-12T04:25:29;30.25;;;20.13;;
18947;SDS011;9607;51.600;7.558;2023-09-12T04:27:57;23.98;;;18.10;;
18947;SDS011;9607;51.600;7.558;2023-09-12T04:30:24;19.30;;;14.20;;
18947;SDS011;9607;51.600;7.558;2023-09-12T04:32:51;20.70;;;17.00;;
18947;SDS011;9607;51.600;7.558;2023-09-12T04:35:19;17.20;;;14.50;;
18947;SDS011;9607;51.600;7.558;2023-09-12T04:37:46;23.20;;;17.42;;
18947;SDS011;9607;51.600;7.558;2023-09-12T04:40:13;26.67;;;19.17;;
18947;SDS011;9607;51.600;7.558;2023-09-12T04:42:40;26.35;;;19.67;;
18947;SDS011;9607;51.600;7.558;2023-09-12T04:45:10;20.52;;;15.55;;
18947;SDS011;9607;51.600;7.558;2023-09-12T04:47:36;19.73;;;15.27;;
18947;SDS011;9607;51.600;7.558;2023-09-12T04:50:04;14.30;;;11.82;;
18947;SDS011;9607;51.600;7.558;2023-09-12T04:52:33;15.88;;;12.05;;
18947;SDS011;9607;51.600;7.558;2023-09-12T04:54:59;15.93;;;13.43;;
18947;SDS011;9607;51.600;7.558;2023-09-12T04:57:26;12.32;;;10.25;;
18947;SDS011;9607;51.600;7.558;2023-09-12T04:59:55;12.73;;;10.88;;
18947;SDS011;9607;51.600;7.558;2023-09-12T05:02:22;11.23;;;9.57;;
18947;SDS011;9607;51.600;7.558;2023-09-12T05:04:49;10.60;;;9.50;;
18947;SDS011;9607;51.600;7.558;2023-09-12T05:07:16;12.88;;;11.45;;
18947;SDS011;9607;51.600;7.558;2023-09-12T05:09:45;13.98;;;11.88;;
18947;SDS011;9607;51.600;7.558;2023-09-12T05:12:12;14.25;;;12.73;;
18947;SDS011;9607;51.600;7.558;2023-09-12T05:14:39;16.80;;;13.85;;
18947;SDS011;9607;51.600;7.558;2023-09-12T05:17:06;13.57;;;11.05;;
18947;SDS011;9607;51.600;7.558;2023-09-12T05:19:33;12.63;;;10.60;;
18947;SDS011;9607;51.600;7.558;2023-09-12T05:21:59;22.60;;;17.00;;
18947;SDS011;9607;51.600;7.558;2023-09-12T05:24:26;18.77;;;14.65;;
18947;SDS011;9607;51.600;7.558;2023-09-12T05:26:54;16.65;;;14.45;;
18947;SDS011;9607;51.600;7.558;2023-09-12T05:29:21;14.77;;;12.20;;
18947;SDS011;9607;51.600;7.558;2023-09-12T05:31:48;15.07;;;11.35;;
18947;SDS011;9607;51.600;7.558;2023-09-12T05:34:15;18.98;;;14.73;;
18947;SDS011;9607;51.600;7.558;2023-09-12T05:36:42;15.40;;;12.15;;
18947;SDS011;9607;51.600;7.558;2023-09-12T05:39:09;13.20;;;11.18;;
18947;SDS011;9607;51.600;7.558;2023-09-12T05:41:35;9.88;;;8.88;;
18947;SDS011;9607;51.600;7.558;2023-09-12T05:44:04;16.25;;;12.88;;
18947;SDS011;9607;51.600;7.558;2023-09-12T05:46:31;11.25;;;10.05;;
18947;SDS011;9607;51.600;7.558;2023-09-12T05:48:57;13.38;;;11.20;;
18947;SDS011;9607;51.600;7.558;2023-09-12T05:51:24;9.25;;;8.35;;
18947;SDS011;9607;51.600;7.558;2023-09-12T05:53:51;11.90;;;10.65;;
18947;SDS011;9607;51.600;7.558;2023-09-12T05:56:18;8.88;;;7.93;;
18947;SDS011;9607;51.600;7.558;2023-09-12T05:58:45;11.18;;;9.98;;
18947;SDS011;9607;51.600;7.558;2023-09-12T06:01:13;9.40;;;8.50;;
18947;SDS011;9607;51.600;7.558;2023-09-12T06:03:40;16.00;;;12.27;;
18947;SDS011;9607;51.600;7.558;2023-09-12T06:06:07;20.95;;;15.27;;
18947;SDS011;9607;51.600;7.558;2023-09-12T06:08:34;20.85;;;17.98;;
18947;SDS011;9607;51.600;7.558;2023-09-12T06:11:01;25.55;;;18.20;;
18947;SDS011;9607;51.600;7.558;2023-09-12T06:13:29;34.83;;;22.17;;
18947;SDS011;9607;51.600;7.558;2023-09-12T06:15:57;24.95;;;18.38;;
18947;SDS011;9607;51.600;7.558;2023-09-12T06:18:26;25.90;;;19.55;;
18947;SDS011;9607;51.600;7.558;2023-09-12T06:20:55;29.45;;;21.50;;
18947;SDS011;9607;51.600;7.558;2023-09-12T06:23:21;23.15;;;16.90;;
18947;SDS011;9607;51.600;7.558;2023-09-12T06:25:48;17.50;;;14.63;;
18947;SDS011;9607;51.600;7.558;2023-09-12T06:28:24;15.32;;;13.43;;
18947;SDS011;9607;51.600;7.558;2023-09-12T06:30:51;15.80;;;12.40;;
18947;SDS011;9607;51.600;7.558;2023-09-12T06:33:18;11.43;;;10.20;;
18947;SDS011;9607;51.600;7.558;2023-09-12T06:35:48;10.10;;;9.10;;
18947;SDS011;9607;51.600;7.558;2023-09-12T06:38:17;30.02;;;18.70;;
18947;SDS011;9607;51.600;7.558;2023-09-12T06:40:44;25.67;;;18.55;;
18947;SDS011;9607;51.600;7.558;2023-09-12T06:43:12;17.90;;;15.05;;
18947;SDS011;9607;51.600;7.558;2023-09-12T06:45:40;19.13;;;14.50;;
18947;SDS011;9607;51.600;7.558;2023-09-12T06:48:06;13.73;;;12.00;;
18947;SDS011;9607;51.600;7.558;2023-09-12T06:50:34;19.38;;;14.93;;
18947;SDS011;9607;51.600;7.558;2023-09-12T06:53:04;23.15;;;17.10;;
18947;SDS011;9607;51.600;7.558;2023-09-12T06:55:32;21.88;;;16.50;;
18947;SDS011;9607;51.600;7.558;2023-09-12T06:57:59;16.15;;;14.10;;
18947;SDS011;9607;51.600;7.558;2023-09-12T07:00:26;23.08;;;18.58;;
18947;SDS011;9607;51.600;7.558;2023-09-12T07:02:53;29.88;;;19.58;;
18947;SDS011;9607;51.600;7.558;2023-09-12T07:05:20;29.17;;;21.15;;
18947;SDS011;9607;51.600;7.558;2023-09-12T07:07:47;30.00;;;21.63;;
18947;SDS011;9607;51.600;7.558;2023-09-12T07:10:15;42.85;;;24.23;;
18947;SDS011;9607;51.600;7.558;2023-09-12T07:12:43;36.95;;;25.35;;
18947;SDS011;9607;51.600;7.558;2023-09-12T07:15:10;41.90;;;28.77;;
18947;SDS011;9607;51.600;7.558;2023-09-12T07:17:38;40.45;;;29.70;;
18947;SDS011;9607;51.600;7.558;2023-09-12T07:20:05;32.63;;;21.38;;
18947;SDS011;9607;51.600;7.558;2023-09-12T07:22:36;40.08;;;28.08;;
18947;SDS011;9607;51.600;7.558;2023-09-12T07:25:04;28.05;;;19.23;;
18947;SDS011;9607;51.600;7.558;2023-09-12T07:27:33;37.10;;;25.48;;
18947;SDS011;9607;51.600;7.558;2023-09-12T07:30:00;30.45;;;21.42;;
18947;SDS011;9607;51.600;7.558;2023-09-12T07:32:27;31.15;;;22.63;;
18947;SDS011;9607;51.600;7.558;2023-09-12T07:34:54;33.85;;;24.55;;
18947;SDS011;9607;51.600;7.558;2023-09-12T07:37:21;35.60;;;24.98;;
18947;SDS011;9607;51.600;7.558;2023-09-12T07:39:51;41.90;;;25.85;;
18947;SDS011;9607;51.600;7.558;2023-09-12T07:42:20;26.30;;;20.23;;
18947;SDS011;9607;51.600;7.558;2023-09-12T07:44:49;24.00;;;17.90;;
18947;SDS011;9607;51.600;7.558;2023-09-12T07:47:16;36.90;;;28.65;;
18947;SDS011;9607;51.600;7.558;2023-09-12T07:49:43;39.55;;;29.95;;
18947;SDS011;9607;51.600;7.558;2023-09-12T07:52:09;23.10;;;19.33;;
18947;SDS011;9607;51.600;7.558;2023-09-12T07:54:36;39.60;;;32.08;;
18947;SDS011;9607;51.600;7.558;2023-09-12T07:57:03;43.63;;;32.05;;
18947;SDS011;9607;51.600;7.558;2023-09-12T07:59:30;28.55;;;23.08;;
18947;SDS011;9607;51.600;7.558;2023-09-12T08:01:58;35.08;;;27.95;;
18947;SDS011;9607;51.600;7.558;2023-09-12T08:04:25;24.85;;;20.75;;
18947;SDS011;9607;51.600;7.558;2023-09-12T08:06:52;33.75;;;26.83;;
18947;SDS011;9607;51.600;7.558;2023-09-12T08:09:19;39.13;;;28.92;;
18947;SDS011;9607;51.600;7.558;2023-09-12T08:11:45;52.22;;;33.35;;
18947;SDS011;9607;51.600;7.558;2023-09-12T08:14:12;46.97;;;33.25;;
18947;SDS011;9607;51.600;7.558;2023-09-12T08:16:39;26.27;;;20.48;;
18947;SDS011;9607;51.600;7.558;2023-09-12T08:19:09;25.17;;;19.38;;
18947;SDS011;9607;51.600;7.558;2023-09-12T08:21:36;25.23;;;20.13;;
18947;SDS011;9607;51.600;7.558;2023-09-12T08:24:04;23.30;;;19.42;;
18947;SDS011;9607;51.600;7.558;2023-09-12T08:26:31;24.42;;;19.50;;
18947;SDS011;9607;51.600;7.558;2023-09-12T08:28:57;26.45;;;19.95;;
18947;SDS011;9607;51.600;7.558;2023-09-12T08:31:24;82.15;;;44.05;;
18947;SDS011;9607;51.600;7.558;2023-09-12T08:33:52;72.68;;;40.75;;
18947;SDS011;9607;51.600;7.558;2023-09-12T08:36:20;63.60;;;36.95;;
18947;SDS011;9607;51.600;7.558;2023-09-12T08:38:47;45.03;;;29.98;;
18947;SDS011;9607;51.600;7.558;2023-09-12T08:41:14;64.85;;;38.47;;
18947;SDS011;9607;51.600;7.558;2023-09-12T08:43:40;71.93;;;40.20;;
18947;SDS011;9607;51.600;7.558;2023-09-12T08:46:08;59.92;;;36.17;;
18947;SDS011;9607;51.600;7.558;2023-09-12T08:48:36;46.63;;;30.05;;
18947;SDS011;9607;51.600;7.558;2023-09-12T08:51:05;47.10;;;29.67;;
18947;SDS011;9607;51.600;7.558;2023-09-12T08:53:35;42.38;;;27.40;;
18947;SDS011;9607;51.600;7.558;2023-09-12T08:56:02;37.83;;;25.38;;
18947;SDS011;9607;51.600;7.558;2023-09-12T08:58:29;31.77;;;22.88;;
18947;SDS011;9607;51.600;7.558;2023-09-12T09:00:58;31.90;;;23.00;;
18947;SDS011;9607;51.600;7.558;2023-09-12T09:03:25;28.10;;;20.45;;
18947;SDS011;9607;51.600;7.558;2023-09-12T09:05:52;24.63;;;18.80;;
18947;SDS011;9607;51.600;7.558;2023-09-12T09:08:21;23.83;;;18.27;;
18947;SDS011;9607;51.600;7.558;2023-09-12T09:10:57;25.25;;;18.85;;
18947;SDS011;9607;51.600;7.558;2023-09-12T09:13:28;19.75;;;16.60;;
18947;SDS011;9607;51.600;7.558;2023-09-12T09:16:11;20.70;;;16.35;;
18947;SDS011;9607;51.600;7.558;2023-09-12T09:18:51;16.20;;;14.25;;
18947;SDS011;9607;51.600;7.558;2023-09-12T09:21:20;15.05;;;13.30;;
18947;SDS011;9607;51.600;7.558;2023-09-12T09:23:50;17.75;;;14.52;;
18947;SDS011;9607;51.600;7.558;2023-09-12T09:26:19;15.63;;;12.32;;
18947;SDS011;9607;51.600;7.558;2023-09-12T09:29:00;15.23;;;13.23;;
18947;SDS011;9607;51.600;7.558;2023-09-12T09:31:31;11.90;;;9.95;;
18947;SDS011;9607;51.600;7.558;2023-09-12T09:33:59;14.95;;;12.43;;
18947;SDS011;9607;51.600;7.558;2023-09-12T09:36:26;19.20;;;15.70;;
18947;SDS011;9607;51.600;7.558;2023-09-12T09:38:56;14.40;;;11.15;;
18947;SDS011;9607;51.600;7.558;2023-09-12T09:41:29;10.00;;;9.00;;
18947;SDS011;9607;51.600;7.558;2023-09-12T09:43:57;12.90;;;11.50;;
18947;SDS011;9607;51.600;7.558;2023-09-12T09:46:27;12.15;;;10.60;;
18947;SDS011;9607;51.600;7.558;2023-09-12T09:48:54;15.48;;;12.20;;
18947;SDS011;9607;51.600;7.558;2023-09-12T09:51:21;10.93;;;9.18;;
18947;SDS011;9607;51.600;7.558;2023-09-12T09:53:50;9.60;;;8.70;;
18947;SDS011;9607;51.600;7.558;2023-09-12T09:56:17;7.90;;;7.20;;
18947;SDS011;9607;51.600;7.558;2023-09-12T09:58:49;8.82;;;7.93;;
18947;SDS011;9607;51.600;7.558;2023-09-12T10:01:19;7.65;;;6.95;;
18947;SDS011;9607;51.600;7.558;2023-09-12T10:03:50;7.63;;;6.82;;
18947;SDS011;9607;51.600;7.558;2023-09-12T10:06:18;5.85;;;5.35;;
18947;SDS011;9607;51.600;7.558;2023-09-12T10:08:46;6.13;;;5.57;;
18947;SDS011;9607;51.600;7.558;2023-09-12T10:11:16;5.43;;;4.93;;
18947;SDS011;9607;51.600;7.558;2023-09-12T10:13:46;5.75;;;5.25;;
18947;SDS011;9607;51.600;7.558;2023-09-12T10:16:23;4.60;;;4.20;;
18947;SDS011;9607;51.600;7.558;2023-09-12T10:18:54;5.10;;;4.60;;
18947;SDS011;9607;51.600;7.558;2023-09-12T10:21:26;4.60;;;4.20;;
18947;SDS011;9607;51.600;7.558;2023-09-12T10:23:58;4.63;;;4.22;;
18947;SDS011;9607;51.600;7.558;2023-09-12T10:26:25;4.15;;;3.80;;
18947;SDS011;9607;51.600;7.558;2023-09-12T10:28:54;4.72;;;4.22;;
18947;SDS011;9607;51.600;7.558;2023-09-12T10:31:22;3.67;;;3.38;;
18947;SDS011;9607;51.600;7.558;2023-09-12T10:33:50;3.30;;;3.00;;
18947;SDS011;9607;51.600;7.558;2023-09-12T10:36:18;3.53;;;3.33;;
18947;SDS011;9607;51.600;7.558;2023-09-12T10:38:47;4.03;;;3.72;;
18947;SDS011;9607;51.600;7.558;2023-09-12T10:41:15;4.05;;;3.25;;
18947;SDS011;9607;51.600;7.558;2023-09-12T10:43:43;3.67;;;3.38;;
18947;SDS011;9607;51.600;7.558;2023-09-12T10:46:16;2.83;;;2.63;;
18947;SDS011;9607;51.600;7.558;2023-09-12T10:48:43;2.88;;;2.67;;
18947;SDS011;9607;51.600;7.558;2023-09-12T10:51:10;3.50;;;3.20;;
18947;SDS011;9607;51.600;7.558;2023-09-12T10:53:38;2.80;;;2.60;;
18947;SDS011;9607;51.600;7.558;2023-09-12T10:56:14;3.53;;;3.22;;
18947;SDS011;9607;51.600;7.558;2023-09-12T11:01:40;2.92;;;2.70;;
18947;SDS011;9607;51.600;7.558;2023-09-12T11:06:58;3.38;;;2.90;;
18947;SDS011;9607;51.600;7.558;2023-09-12T11:09:25;3.00;;;2.80;;
18947;SDS011;9607;51.600;7.558;2023-09-12T11:11:54;3.08;;;2.75;;
18947;SDS011;9607;51.600;7.558;2023-09-12T11:14:23;2.30;;;2.20;;
18947;SDS011;9607;51.600;7.558;2023-09-12T11:19:51;2.63;;;2.42;;
18947;SDS011;9607;51.600;7.558;2023-09-12T11:22:22;2.28;;;2.10;;
18947;SDS011;9607;51.600;7.558;2023-09-12T11:24:50;1.80;;;1.70;;
18947;SDS011;9607;51.600;7.558;2023-09-12T11:27:18;2.55;;;2.35;;
18947;SDS011;9607;51.600;7.558;2023-09-12T11:29:45;2.47;;;2.28;;
18947;SDS011;9607;51.600;7.558;2023-09-12T11:32:25;2.70;;;2.50;;
18947;SDS011;9607;51.600;7.558;2023-09-12T11:34:53;3.13;;;2.65;;
18947;SDS011;9607;51.600;7.558;2023-09-12T11:37:24;2.85;;;2.65;;
18947;SDS011;9607;51.600;7.558;2023-09-12T11:39:51;2.22;;;2.03;;
18947;SDS011;9607;51.600;7.558;2023-09-12T11:42:18;2.10;;;2.00;;
18947;SDS011;9607;51.600;7.558;2023-09-12T11:44:47;5.78;;;4.10;;
18947;SDS011;9607;51.600;7.558;2023-09-12T11:47:15;3.38;;;3.08;;
18947;SDS011;9607;51.600;7.558;2023-09-12T11:49:43;3.75;;;3.45;;
18947;SDS011;9607;51.600;7.558;2023-09-12T11:52:10;4.30;;;3.90;;
18947;SDS011;9607;51.600;7.558;2023-09-12T11:54:38;3.63;;;3.33;;
18947;SDS011;9607;51.600;7.558;2023-09-12T11:57:07;3.80;;;3.50;;
18947;SDS011;9607;51.600;7.558;2023-09-12T11:59:36;4.25;;;3.95;;
18947;SDS011;9607;51.600;7.558;2023-09-12T12:02:06;4.15;;;3.85;;
18947;SDS011;9607;51.600;7.558;2023-09-12T12:04:33;4.13;;;3.72;;
18947;SDS011;9607;51.600;7.558;2023-09-12T12:07:02;4.10;;;3.70;;
18947;SDS011;9607;51.600;7.558;2023-09-12T12:09:30;2.83;;;2.63;;
18947;SDS011;9607;51.600;7.558;2023-09-12T12:12:02;3.60;;;3.38;;
18947;SDS011;9607;51.600;7.558;2023-09-12T12:14:33;4.07;;;3.78;;
18947;SDS011;9607;51.600;7.558;2023-09-12T12:17:05;5.03;;;4.63;;
18947;SDS011;9607;51.600;7.558;2023-09-12T12:19:33;4.10;;;3.80;;
18947;SDS011;9607;51.600;7.558;2023-09-12T12:22:03;4.13;;;3.83;;
18947;SDS011;9607;51.600;7.558;2023-09-12T12:24:38;4.28;;;3.92;;
18947;SDS011;9607;51.600;7.558;2023-09-12T12:27:06;4.30;;;3.50;;
18947;SDS011;9607;51.600;7.558;2023-09-12T12:29:35;3.92;;;3.10;;
18947;SDS011;9607;51.600;7.558;2023-09-12T12:32:05;3.13;;;2.92;;
18947;SDS011;9607;51.600;7.558;2023-09-12T12:34:34;2.63;;;2.38;;
18947;SDS011;9607;51.600;7.558;2023-09-12T12:37:03;2.78;;;2.58;;
18947;SDS011;9607;51.600;7.558;2023-09-12T12:39:31;2.90;;;2.70;;
18947;SDS011;9607;51.600;7.558;2023-09-12T12:41:58;2.85;;;2.65;;
18947;SDS011;9607;51.600;7.558;2023-09-12T12:44:32;2.90;;;2.70;;
18947;SDS011;9607;51.600;7.558;2023-09-12T12:47:03;2.63;;;2.42;;
18947;SDS011;9607;51.600;7.558;2023-09-12T12:49:35;2.30;;;2.20;;
18947;SDS011;9607;51.600;7.558;2023-09-12T12:52:06;2.85;;;2.65;;
18947;SDS011;9607;51.600;7.558;2023-09-12T12:54:35;2.35;;;2.20;;
18947;SDS011;9607;51.600;7.558;2023-09-12T12:57:02;3.60;;;3.30;;
18947;SDS011;9607;51.600;7.558;2023-09-12T12:59:30;2.60;;;2.40;;
18947;SDS011;9607;51.600;7.558;2023-09-12T13:02:01;2.55;;;2.35;;
18947;SDS011;9607;51.600;7.558;2023-09-12T13:04:28;4.13;;;3.20;;
18947;SDS011;9607;51.600;7.558;2023-09-12T13:07:03;3.75;;;3.45;;
18947;SDS011;9607;51.600;7.558;2023-09-12T13:09:32;3.50;;;3.20;;
18947;SDS011;9607;51.600;7.558;2023-09-12T13:11:59;2.47;;;2.30;;
18947;SDS011;9607;51.600;7.558;2023-09-12T13:14:26;2.50;;;2.30;;
18947;SDS011;9607;51.600;7.558;2023-09-12T13:16:56;2.97;;;2.70;;
18947;SDS011;9607;51.600;7.558;2023-09-12T13:19:23;2.72;;;2.53;;
18947;SDS011;9607;51.600;7.558;2023-09-12T13:21:50;2.47;;;2.28;;
18947;SDS011;9607;51.600;7.558;2023-09-12T13:24:18;2.92;;;2.72;;
18947;SDS011;9607;51.600;7.558;2023-09-12T13:26:45;2.45;;;2.25;;
18947;SDS011;9607;51.600;7.558;2023-09-12T13:29:12;2.50;;;2.30;;
18947;SDS011;9607;51.600;7.558;2023-09-12T13:31:39;3.72;;;3.42;;
18947;SDS011;9607;51.600;7.558;2023-09-12T13:34:06;3.05;;;2.83;;
18947;SDS011;9607;51.600;7.558;2023-09-12T13:36:36;3.05;;;2.75;;
18947;SDS011;9607;51.600;7.558;2023-09-12T13:39:03;2.70;;;2.50;;
18947;SDS011;9607;51.600;7.558;2023-09-12T13:41:33;3.53;;;3.22;;
18947;SDS011;9607;51.600;7.558;2023-09-12T13:43:59;2.60;;;2.40;;
18947;SDS011;9607;51.600;7.558;2023-09-12T13:46:26;2.92;;;2.63;;
18947;SDS011;9607;51.600;7.558;2023-09-12T13:48:53;2.95;;;2.72;;
18947;SDS011;9607;51.600;7.558;2023-09-12T13:51:22;2.85;;;2.65;;
18947;SDS011;9607;51.600;7.558;2023-09-12T13:53:48;2.35;;;2.25;;
18947;SDS011;9607;51.600;7.558;2023-09-12T13:56:15;2.25;;;2.15;;
18947;SDS011;9607;51.600;7.558;2023-09-12T13:58:43;3.05;;;2.85;;
18947;SDS011;9607;51.600;7.558;2023-09-12T14:01:10;2.90;;;2.70;;
18947;SDS011;9607;51.600;7.558;2023-09-12T14:03:37;2.72;;;2.53;;
18947;SDS011;9607;51.600;7.558;2023-09-12T14:06:04;3.50;;;3.20;;
18947;SDS011;9607;51.600;7.558;2023-09-12T14:08:31;5.70;;;4.85;;
18947;SDS011;9607;51.600;7.558;2023-09-12T14:10:59;3.22;;;3.03;;
18947;SDS011;9607;51.600;7.558;2023-09-12T14:13:25;2.28;;;2.17;;
18947;SDS011;9607;51.600;7.558;2023-09-12T14:15:54;2.28;;;2.17;;
18947;SDS011;9607;51.600;7.558;2023-09-12T14:18:20;3.33;;;3.10;;
18947;SDS011;9607;51.600;7.558;2023-09-12T14:20:47;3.22;;;2.92;;
18947;SDS011;9607;51.600;7.558;2023-09-12T14:23:16;2.90;;;2.65;;
18947;SDS011;9607;51.600;7.558;2023-09-12T14:25:43;2.67;;;2.47;;
18947;SDS011;9607;51.600;7.558;2023-09-12T14:28:09;2.65;;;2.45;;
18947;SDS011;9607;51.600;7.558;2023-09-12T14:30:36;2.22;;;2.10;;
18947;SDS011;9607;51.600;7.558;2023-09-12T14:33:10;3.22;;;2.97;;
18947;SDS011;9607;51.600;7.558;2023-09-12T14:35:38;3.60;;;3.30;;
18947;SDS011;9607;51.600;7.558;2023-09-12T14:38:05;2.65;;;2.45;;
18947;SDS011;9607;51.600;7.558;2023-09-12T14:40:33;2.85;;;2.65;;
18947;SDS011;9607;51.600;7.558;2023-09-12T14:43:00;4.50;;;4.10;;
18947;SDS011;9607;51.600;7.558;2023-09-12T14:45:27;2.88;;;2.67;;
18947;SDS011;9607;51.600;7.558;2023-09-12T14:47:55;2.70;;;2.50;;
18947;SDS011;9607;51.600;7.558;2023-09-12T14:50:24;3.72;;;3.42;;
18947;SDS011;9607;51.600;7.558;2023-09-12T14:52:54;4.25;;;3.42;;
18947;SDS011;9607;51.600;7.558;2023-09-12T14:55:21;3.83;;;3.53;;
18947;SDS011;9607;51.600;7.558;2023-09-12T14:57:48;2.53;;;2.33;;
18947;SDS011;9607;51.600;7.558;2023-09-12T15:00:15;4.00;;;3.70;;
18947;SDS011;9607;51.600;7.558;2023-09-12T15:02:42;4.18;;;3.70;;
18947;SDS011;9607;51.600;7.558;2023-09-12T15:05:09;3.70;;;3.35;;
18947;SDS011;9607;51.600;7.558;2023-09-12T15:07:38;4.15;;;3.75;;